AAL7280 KPHX-KSAT
Flight info
| Callsign | AAL7280 |
|---|---|
| Flight time | 1h 34m |
| Altitude | 37000 |
| Route | ECLPS1 PHASE ELP FST MOPPP DNKIN2 |
| Aircraft | B38M/M-SDE1FGHILORVWXY/HB1 |
Departure
| Time | 2026-05-04 01:45 |
|---|---|
| Airport | Phoenix Sky Harbor International Airport (KPHX) |
Arrival
| Time | 2026-05-04 03:19 |
|---|---|
| Airport | San Antonio International Airport (KSAT) |
| Time | Latitude | Longitude | Altitude | Speed | Heading |
|---|---|---|---|---|---|
| 2026-05-04 00:57 | 33.43364 | -111.99734 | 1133 ft | 0 kts | 78° |
| 2026-05-04 01:19 | 33.43364 | -111.99735 | 1169 ft | 1 kts | 78° |
| 2026-05-04 01:19 | 33.43362 | -111.99760 | 1161 ft | 4 kts | 109° |
| 2026-05-04 01:20 | 33.43378 | -111.99780 | 1150 ft | 4 kts | 165° |
| 2026-05-04 01:20 | 33.43392 | -111.99782 | 1149 ft | 1 kts | 180° |
| 2026-05-04 01:20 | 33.43393 | -111.99782 | 1149 ft | 0 kts | 180° |
| 2026-05-04 01:41 | 33.43391 | -111.99782 | 1176 ft | 1 kts | 180° |
| 2026-05-04 01:41 | 33.43380 | -111.99782 | 1137 ft | 2 kts | 176° |
| 2026-05-04 01:41 | 33.43348 | -111.99775 | 1133 ft | 9 kts | 160° |
| 2026-05-04 01:42 | 33.43289 | -111.99683 | 1134 ft | 19 kts | 101° |
| 2026-05-04 01:42 | 33.43283 | -111.99523 | 1134 ft | 23 kts | 87° |
| 2026-05-04 01:42 | 33.43279 | -111.99355 | 1132 ft | 13 kts | 90° |
| 2026-05-04 01:42 | 33.43265 | -111.99261 | 1135 ft | 9 kts | 127° |
| 2026-05-04 01:43 | 33.43214 | -111.99268 | 1133 ft | 4 kts | 214° |
| 2026-05-04 01:43 | 33.43168 | -111.99314 | 1135 ft | 13 kts | 219° |
| 2026-05-04 01:43 | 33.43107 | -111.99402 | 1136 ft | 16 kts | 260° |
| 2026-05-04 01:43 | 33.43106 | -111.99416 | 1136 ft | 0 kts | 264° |
| 2026-05-04 01:44 | 33.43105 | -111.99479 | 1135 ft | 32 kts | 269° |
| 2026-05-04 01:44 | 33.43103 | -112.00069 | 1135 ft | 108 kts | 270° |
| 2026-05-04 01:44 | 33.43101 | -112.01243 | 1133 ft | 171 kts | 269° |
| 2026-05-04 01:44 | 33.43053 | -112.02814 | 1451 ft | 207 kts | 261° |
| 2026-05-04 01:45 | 33.42945 | -112.04589 | 2292 ft | 204 kts | 262° |
| 2026-05-04 01:45 | 33.42881 | -112.06268 | 3406 ft | 209 kts | 263° |
| 2026-05-04 01:45 | 33.42067 | -112.09873 | 4552 ft | 243 kts | 246° |
| 2026-05-04 01:46 | 33.41469 | -112.11823 | 5245 ft | 255 kts | 247° |
| 2026-05-04 01:46 | 33.40845 | -112.13851 | 6032 ft | 264 kts | 247° |
| 2026-05-04 01:46 | 33.40092 | -112.15843 | 6930 ft | 262 kts | 232° |
| 2026-05-04 01:46 | 33.38759 | -112.17292 | 7741 ft | 262 kts | 206° |
| 2026-05-04 01:47 | 33.37017 | -112.17867 | 8619 ft | 265 kts | 183° |
| 2026-05-04 01:47 | 33.35168 | -112.17554 | 9329 ft | 275 kts | 165° |
| 2026-05-04 01:47 | 33.33337 | -112.16941 | 10245 ft | 273 kts | 167° |
| 2026-05-04 01:47 | 33.31451 | -112.16306 | 10701 ft | 291 kts | 166° |
| 2026-05-04 01:48 | 33.29478 | -112.15465 | 11043 ft | 313 kts | 152° |
| 2026-05-04 01:48 | 33.27757 | -112.13788 | 11562 ft | 328 kts | 139° |
| 2026-05-04 01:48 | 33.26083 | -112.11864 | 12147 ft | 335 kts | 139° |
| 2026-05-04 01:48 | 33.24495 | -112.09807 | 12920 ft | 342 kts | 127° |
| 2026-05-04 01:49 | 33.23503 | -112.07196 | 13664 ft | 351 kts | 111° |
| 2026-05-04 01:49 | 33.22748 | -112.04392 | 14231 ft | 358 kts | 111° |
| 2026-05-04 01:49 | 33.21978 | -112.01525 | 14732 ft | 367 kts | 111° |
| 2026-05-04 01:49 | 33.21201 | -111.98597 | 15282 ft | 372 kts | 111° |
| 2026-05-04 01:50 | 33.20420 | -111.95630 | 15873 ft | 378 kts | 111° |
| 2026-05-04 01:50 | 33.19627 | -111.92614 | 16404 ft | 383 kts | 111° |
| 2026-05-04 01:50 | 33.18825 | -111.89564 | 16962 ft | 388 kts | 111° |
| 2026-05-04 01:50 | 33.18012 | -111.86470 | 17498 ft | 393 kts | 111° |
| 2026-05-04 01:51 | 33.17186 | -111.83335 | 18045 ft | 398 kts | 111° |
| 2026-05-04 01:51 | 33.16352 | -111.80167 | 18513 ft | 402 kts | 111° |
| 2026-05-04 01:51 | 33.15507 | -111.76964 | 18983 ft | 407 kts | 111° |
| 2026-05-04 01:51 | 33.14652 | -111.73728 | 19435 ft | 411 kts | 111° |
| 2026-05-04 01:52 | 33.13789 | -111.70461 | 19904 ft | 415 kts | 111° |
| 2026-05-04 01:52 | 33.12914 | -111.67157 | 20377 ft | 420 kts | 111° |
| 2026-05-04 01:52 | 33.12029 | -111.63819 | 20826 ft | 423 kts | 111° |
| 2026-05-04 01:52 | 33.11136 | -111.60458 | 21265 ft | 427 kts | 111° |
| 2026-05-04 01:53 | 33.10233 | -111.57057 | 21690 ft | 432 kts | 111° |
| 2026-05-04 01:53 | 33.09322 | -111.53633 | 22106 ft | 435 kts | 111° |
| 2026-05-04 01:53 | 33.08414 | -111.50223 | 22525 ft | 439 kts | 111° |
| 2026-05-04 01:53 | 33.07480 | -111.46738 | 22935 ft | 443 kts | 112° |
| 2026-05-04 01:54 | 33.06135 | -111.43470 | 23318 ft | 438 kts | 128° |
| 2026-05-04 01:54 | 33.04476 | -111.40427 | 23733 ft | 440 kts | 127° |
| 2026-05-04 01:54 | 33.02809 | -111.37327 | 23958 ft | 447 kts | 128° |
| 2026-05-04 01:54 | 33.01119 | -111.34220 | 24385 ft | 448 kts | 128° |
| 2026-05-04 01:55 | 32.99408 | -111.31094 | 24664 ft | 453 kts | 128° |
| 2026-05-04 01:55 | 32.97681 | -111.27946 | 25041 ft | 455 kts | 128° |
| 2026-05-04 01:55 | 32.95943 | -111.24782 | 25376 ft | 459 kts | 128° |
| 2026-05-04 01:55 | 32.94191 | -111.21595 | 25697 ft | 462 kts | 128° |
| 2026-05-04 01:56 | 32.92424 | -111.18385 | 26024 ft | 465 kts | 128° |
| 2026-05-04 01:56 | 32.90645 | -111.15154 | 26343 ft | 468 kts | 128° |
| 2026-05-04 01:56 | 32.88856 | -111.11908 | 26648 ft | 471 kts | 128° |
| 2026-05-04 01:56 | 32.87048 | -111.08632 | 26928 ft | 475 kts | 128° |
| 2026-05-04 01:57 | 32.85228 | -111.05337 | 27239 ft | 478 kts | 128° |
| 2026-05-04 01:57 | 32.83396 | -111.02022 | 27541 ft | 481 kts | 129° |
| 2026-05-04 01:57 | 32.81554 | -110.98690 | 27868 ft | 484 kts | 129° |
| 2026-05-04 01:57 | 32.79699 | -110.95341 | 28188 ft | 487 kts | 129° |
| 2026-05-04 01:58 | 32.77832 | -110.91972 | 28469 ft | 490 kts | 129° |
| 2026-05-04 01:58 | 32.75952 | -110.88582 | 28754 ft | 493 kts | 129° |
| 2026-05-04 01:58 | 32.74061 | -110.85176 | 29034 ft | 495 kts | 129° |
| 2026-05-04 01:58 | 32.72157 | -110.81750 | 29321 ft | 498 kts | 129° |
| 2026-05-04 01:59 | 32.70244 | -110.78310 | 29609 ft | 501 kts | 129° |
| 2026-05-04 01:59 | 32.68317 | -110.74848 | 29832 ft | 504 kts | 129° |
| 2026-05-04 01:59 | 32.66377 | -110.71365 | 30048 ft | 507 kts | 129° |
| 2026-05-04 01:59 | 32.64699 | -110.67644 | 30222 ft | 519 kts | 113° |
| 2026-05-04 02:00 | 32.63750 | -110.63511 | 30587 ft | 520 kts | 105° |
| 2026-05-04 02:00 | 32.62943 | -110.59302 | 30691 ft | 526 kts | 105° |
| 2026-05-04 02:00 | 32.61362 | -110.50764 | 31123 ft | 531 kts | 104° |
| 2026-05-04 02:01 | 32.59793 | -110.42127 | 31544 ft | 537 kts | 104° |
| 2026-05-04 02:01 | 32.59002 | -110.37785 | 31714 ft | 541 kts | 104° |
| 2026-05-04 02:01 | 32.58203 | -110.33404 | 31864 ft | 545 kts | 104° |
| 2026-05-04 02:02 | 32.57412 | -110.29074 | 32154 ft | 545 kts | 104° |
| 2026-05-04 02:02 | 32.56593 | -110.24605 | 32327 ft | 549 kts | 104° |
| 2026-05-04 02:02 | 32.55779 | -110.20167 | 32497 ft | 552 kts | 104° |
| 2026-05-04 02:02 | 32.54959 | -110.15708 | 32657 ft | 555 kts | 104° |
| 2026-05-04 02:03 | 32.54134 | -110.11233 | 32850 ft | 557 kts | 104° |
| 2026-05-04 02:03 | 32.53316 | -110.06802 | 33062 ft | 558 kts | 104° |
| 2026-05-04 02:03 | 32.52483 | -110.02299 | 33227 ft | 561 kts | 104° |
| 2026-05-04 02:03 | 32.51643 | -109.97771 | 33419 ft | 564 kts | 104° |
| 2026-05-04 02:04 | 32.50798 | -109.93227 | 33611 ft | 565 kts | 104° |
| 2026-05-04 02:04 | 32.49951 | -109.88676 | 33850 ft | 566 kts | 104° |
| 2026-05-04 02:04 | 32.49100 | -109.84116 | 34070 ft | 567 kts | 104° |
| 2026-05-04 02:04 | 32.48247 | -109.79558 | 34299 ft | 567 kts | 104° |
| 2026-05-04 02:05 | 32.47393 | -109.75001 | 34601 ft | 565 kts | 104° |
| 2026-05-04 02:05 | 32.46542 | -109.70467 | 34881 ft | 564 kts | 104° |
| 2026-05-04 02:05 | 32.45688 | -109.65932 | 35058 ft | 564 kts | 104° |
| 2026-05-04 02:05 | 32.44837 | -109.61417 | 35239 ft | 565 kts | 104° |
| 2026-05-04 02:06 | 32.43978 | -109.56876 | 35439 ft | 565 kts | 104° |
| 2026-05-04 02:06 | 32.43119 | -109.52341 | 35621 ft | 565 kts | 104° |
| 2026-05-04 02:06 | 32.42259 | -109.47807 | 35807 ft | 565 kts | 104° |
| 2026-05-04 02:06 | 32.41396 | -109.43270 | 35963 ft | 565 kts | 104° |
| 2026-05-04 02:07 | 32.40532 | -109.38734 | 36157 ft | 565 kts | 104° |
| 2026-05-04 02:07 | 32.39666 | -109.34201 | 36305 ft | 565 kts | 104° |
| 2026-05-04 02:07 | 32.38798 | -109.29666 | 36485 ft | 565 kts | 104° |
| 2026-05-04 02:07 | 32.37930 | -109.25134 | 36652 ft | 565 kts | 104° |
| 2026-05-04 02:08 | 32.37143 | -109.21034 | 36797 ft | 565 kts | 104° |
| 2026-05-04 02:08 | 32.36285 | -109.16496 | 36854 ft | 567 kts | 103° |
| 2026-05-04 02:08 | 32.34683 | -109.07407 | 36860 ft | 562 kts | 103° |
| 2026-05-04 02:09 | 32.33070 | -108.98364 | 36832 ft | 562 kts | 103° |
| 2026-05-04 02:09 | 32.31448 | -108.89318 | 36860 ft | 563 kts | 103° |
| 2026-05-04 02:10 | 32.29821 | -108.80281 | 36868 ft | 562 kts | 103° |
| 2026-05-04 02:10 | 32.28185 | -108.71239 | 37012 ft | 561 kts | 103° |
| 2026-05-04 02:11 | 32.26549 | -108.62226 | 37001 ft | 562 kts | 104° |
| 2026-05-04 02:11 | 32.24908 | -108.53230 | 36996 ft | 565 kts | 104° |
| 2026-05-04 02:12 | 32.23519 | -108.45643 | 36946 ft | 564 kts | 104° |
| 2026-05-04 02:12 | 32.21589 | -108.35143 | 36902 ft | 560 kts | 104° |
| 2026-05-04 02:13 | 32.20200 | -108.27620 | 36880 ft | 560 kts | 104° |
| 2026-05-04 02:13 | 32.18534 | -108.18633 | 36885 ft | 560 kts | 104° |
| 2026-05-04 02:14 | 32.16862 | -108.09651 | 36885 ft | 560 kts | 104° |
| 2026-05-04 02:14 | 32.15185 | -108.00678 | 36884 ft | 560 kts | 104° |
| 2026-05-04 02:15 | 32.13499 | -107.91697 | 36886 ft | 560 kts | 104° |
| 2026-05-04 02:15 | 32.11807 | -107.82718 | 36889 ft | 561 kts | 104° |
| 2026-05-04 02:16 | 32.10959 | -107.78234 | 37004 ft | 561 kts | 104° |
| 2026-05-04 02:16 | 32.10109 | -107.73743 | 37018 ft | 561 kts | 104° |
| 2026-05-04 02:16 | 32.08408 | -107.64792 | 36993 ft | 558 kts | 104° |
| 2026-05-04 02:17 | 32.06708 | -107.55876 | 36939 ft | 558 kts | 104° |
| 2026-05-04 02:17 | 32.04997 | -107.46950 | 36930 ft | 559 kts | 104° |
| 2026-05-04 02:18 | 32.03281 | -107.38019 | 36889 ft | 558 kts | 104° |
| 2026-05-04 02:18 | 32.01562 | -107.29126 | 36874 ft | 555 kts | 104° |
| 2026-05-04 02:19 | 31.99843 | -107.20258 | 36888 ft | 556 kts | 104° |
| 2026-05-04 02:19 | 31.98127 | -107.11441 | 36877 ft | 556 kts | 104° |
| 2026-05-04 02:20 | 31.96390 | -107.02555 | 36911 ft | 558 kts | 104° |
| 2026-05-04 02:20 | 31.94652 | -106.93691 | 36888 ft | 554 kts | 104° |
| 2026-05-04 02:21 | 31.92912 | -106.84858 | 37023 ft | 554 kts | 104° |
| 2026-05-04 02:21 | 31.91164 | -106.76016 | 37046 ft | 554 kts | 104° |
| 2026-05-04 02:22 | 31.89411 | -106.67183 | 37072 ft | 554 kts | 105° |
| 2026-05-04 02:22 | 31.87657 | -106.58381 | 37034 ft | 552 kts | 105° |
| 2026-05-04 02:23 | 31.85899 | -106.49581 | 37016 ft | 553 kts | 105° |
| 2026-05-04 02:23 | 31.84136 | -106.40789 | 36995 ft | 552 kts | 105° |
| 2026-05-04 02:24 | 31.82366 | -106.31993 | 37001 ft | 553 kts | 105° |
| 2026-05-04 02:24 | 31.80303 | -106.23332 | 37050 ft | 550 kts | 108° |
| 2026-05-04 02:25 | 31.78155 | -106.14699 | 36946 ft | 549 kts | 108° |
| 2026-05-04 02:25 | 31.76021 | -106.06073 | 36923 ft | 550 kts | 108° |
| 2026-05-04 02:26 | 31.73879 | -105.97443 | 36889 ft | 550 kts | 108° |
| 2026-05-04 02:26 | 31.71738 | -105.88840 | 36860 ft | 548 kts | 108° |
| 2026-05-04 02:27 | 31.69590 | -105.80242 | 36879 ft | 549 kts | 108° |
| 2026-05-04 02:27 | 31.67437 | -105.71645 | 36877 ft | 549 kts | 108° |
| 2026-05-04 02:28 | 31.65277 | -105.63050 | 36872 ft | 549 kts | 108° |
| 2026-05-04 02:28 | 31.63121 | -105.54498 | 36881 ft | 545 kts | 108° |
| 2026-05-04 02:29 | 31.60964 | -105.45967 | 36885 ft | 545 kts | 108° |
| 2026-05-04 02:29 | 31.58801 | -105.37441 | 36886 ft | 545 kts | 108° |
| 2026-05-04 02:30 | 31.56632 | -105.28917 | 36895 ft | 545 kts | 108° |
| 2026-05-04 02:30 | 31.54459 | -105.20402 | 36900 ft | 544 kts | 108° |
| 2026-05-04 02:31 | 31.52283 | -105.11903 | 36901 ft | 545 kts | 108° |
| 2026-05-04 02:31 | 31.50100 | -105.03400 | 36911 ft | 545 kts | 108° |
| 2026-05-04 02:32 | 31.47926 | -104.94963 | 36902 ft | 545 kts | 108° |
| 2026-05-04 02:32 | 31.45730 | -104.86456 | 36876 ft | 546 kts | 108° |
| 2026-05-04 02:33 | 31.43521 | -104.77936 | 36914 ft | 547 kts | 108° |
| 2026-05-04 02:33 | 31.41312 | -104.69437 | 36912 ft | 546 kts | 108° |
| 2026-05-04 02:34 | 31.39097 | -104.60942 | 36916 ft | 546 kts | 108° |
| 2026-05-04 02:34 | 31.36877 | -104.52448 | 36915 ft | 546 kts | 108° |
| 2026-05-04 02:35 | 31.34650 | -104.43959 | 36925 ft | 546 kts | 108° |
| 2026-05-04 02:35 | 31.32417 | -104.35470 | 36937 ft | 546 kts | 108° |
| 2026-05-04 02:36 | 31.30178 | -104.26981 | 36936 ft | 546 kts | 108° |
| 2026-05-04 02:36 | 31.27934 | -104.18498 | 36909 ft | 546 kts | 108° |
| 2026-05-04 02:37 | 31.25688 | -104.10039 | 36949 ft | 544 kts | 108° |
| 2026-05-04 02:37 | 31.23441 | -104.01595 | 36938 ft | 544 kts | 108° |
| 2026-05-04 02:38 | 31.21186 | -103.93147 | 36938 ft | 544 kts | 108° |
| 2026-05-04 02:38 | 31.18927 | -103.84712 | 36974 ft | 545 kts | 108° |
| 2026-05-04 02:39 | 31.16663 | -103.76278 | 36933 ft | 543 kts | 108° |
| 2026-05-04 02:39 | 31.14397 | -103.67863 | 36921 ft | 544 kts | 108° |
| 2026-05-04 02:40 | 31.12123 | -103.59443 | 36916 ft | 544 kts | 109° |
| 2026-05-04 02:40 | 31.09845 | -103.51032 | 36915 ft | 544 kts | 109° |
| 2026-05-04 02:41 | 31.07565 | -103.42637 | 36900 ft | 541 kts | 108° |
| 2026-05-04 02:41 | 31.05288 | -103.34282 | 36913 ft | 540 kts | 108° |
| 2026-05-04 02:42 | 31.03008 | -103.25932 | 36915 ft | 540 kts | 108° |
| 2026-05-04 02:42 | 31.00725 | -103.17589 | 36922 ft | 540 kts | 108° |
| 2026-05-04 02:43 | 30.98436 | -103.09250 | 36931 ft | 540 kts | 108° |
| 2026-05-04 02:43 | 30.96147 | -103.00932 | 36933 ft | 539 kts | 109° |
| 2026-05-04 02:44 | 30.94030 | -102.92563 | 36944 ft | 539 kts | 107° |
| 2026-05-04 02:44 | 30.91946 | -102.84179 | 36939 ft | 539 kts | 107° |
| 2026-05-04 02:45 | 30.89854 | -102.75806 | 36992 ft | 539 kts | 107° |
| 2026-05-04 02:45 | 30.87751 | -102.67414 | 36960 ft | 540 kts | 107° |
| 2026-05-04 02:46 | 30.85638 | -102.59005 | 36977 ft | 541 kts | 107° |
| 2026-05-04 02:46 | 30.83535 | -102.50663 | 36979 ft | 541 kts | 107° |
| 2026-05-04 02:47 | 30.81412 | -102.42269 | 37000 ft | 540 kts | 107° |
| 2026-05-04 02:47 | 30.79283 | -102.33872 | 36989 ft | 542 kts | 107° |
| 2026-05-04 02:48 | 30.77144 | -102.25463 | 37011 ft | 543 kts | 107° |
| 2026-05-04 02:48 | 30.74999 | -102.17052 | 37022 ft | 543 kts | 107° |
| 2026-05-04 02:49 | 30.72847 | -102.08644 | 37023 ft | 543 kts | 107° |
| 2026-05-04 02:49 | 30.70687 | -102.00229 | 37023 ft | 543 kts | 107° |
| 2026-05-04 02:50 | 30.68526 | -101.91830 | 36998 ft | 542 kts | 107° |
| 2026-05-04 02:50 | 30.66362 | -101.83449 | 37025 ft | 542 kts | 107° |
| 2026-05-04 02:51 | 30.64194 | -101.75078 | 37027 ft | 541 kts | 107° |
| 2026-05-04 02:51 | 30.62019 | -101.66700 | 37046 ft | 542 kts | 107° |
| 2026-05-04 02:52 | 30.59839 | -101.58328 | 37038 ft | 542 kts | 107° |
| 2026-05-04 02:52 | 30.57653 | -101.49958 | 37036 ft | 542 kts | 107° |
| 2026-05-04 02:53 | 30.55462 | -101.41593 | 37038 ft | 542 kts | 107° |
| 2026-05-04 02:53 | 30.53264 | -101.33230 | 37038 ft | 542 kts | 107° |
| 2026-05-04 02:54 | 30.51061 | -101.24867 | 37074 ft | 542 kts | 107° |
| 2026-05-04 02:54 | 30.48852 | -101.16506 | 37067 ft | 543 kts | 107° |
| 2026-05-04 02:55 | 30.45531 | -101.03981 | 37052 ft | 541 kts | 107° |
| 2026-05-04 02:56 | 30.43311 | -100.95639 | 37066 ft | 541 kts | 107° |
| 2026-05-04 02:56 | 30.41086 | -100.87303 | 37084 ft | 541 kts | 107° |
| 2026-05-04 02:57 | 30.38860 | -100.78981 | 37085 ft | 541 kts | 108° |
| 2026-05-04 02:57 | 30.37004 | -100.72070 | 36278 ft | 543 kts | 108° |
| 2026-05-04 02:57 | 30.35872 | -100.67860 | 35258 ft | 552 kts | 108° |
| 2026-05-04 02:58 | 30.34726 | -100.63603 | 34415 ft | 556 kts | 108° |
| 2026-05-04 02:58 | 30.33582 | -100.59356 | 33911 ft | 551 kts | 108° |
| 2026-05-04 02:58 | 30.32439 | -100.55120 | 33055 ft | 552 kts | 108° |
| 2026-05-04 02:58 | 30.31290 | -100.50871 | 32274 ft | 552 kts | 108° |
| 2026-05-04 02:59 | 30.30147 | -100.46650 | 31768 ft | 546 kts | 108° |
| 2026-05-04 02:59 | 30.29020 | -100.42491 | 31393 ft | 538 kts | 108° |
| 2026-05-04 02:59 | 30.27905 | -100.38386 | 30928 ft | 532 kts | 108° |
| 2026-05-04 02:59 | 30.26800 | -100.34320 | 30383 ft | 529 kts | 108° |
| 2026-05-04 03:00 | 30.25698 | -100.30273 | 29701 ft | 527 kts | 108° |
| 2026-05-04 03:00 | 30.24597 | -100.26233 | 29052 ft | 525 kts | 108° |
| 2026-05-04 03:00 | 30.23506 | -100.22233 | 28589 ft | 518 kts | 108° |
| 2026-05-04 03:00 | 30.22427 | -100.18280 | 28094 ft | 513 kts | 108° |
| 2026-05-04 03:01 | 30.21354 | -100.14357 | 27556 ft | 510 kts | 108° |
| 2026-05-04 03:01 | 30.20287 | -100.10460 | 27045 ft | 506 kts | 108° |
| 2026-05-04 03:01 | 30.19227 | -100.06596 | 26547 ft | 503 kts | 108° |
| 2026-05-04 03:01 | 30.18172 | -100.02751 | 26052 ft | 500 kts | 108° |
| 2026-05-04 03:02 | 30.17021 | -99.98970 | 25501 ft | 498 kts | 111° |
| 2026-05-04 03:02 | 30.15815 | -99.95232 | 25078 ft | 494 kts | 111° |
| 2026-05-04 03:02 | 30.14646 | -99.91555 | 25026 ft | 479 kts | 111° |
| 2026-05-04 03:02 | 30.13520 | -99.88002 | 25061 ft | 464 kts | 111° |
| 2026-05-04 03:03 | 30.12427 | -99.84555 | 25067 ft | 449 kts | 111° |
| 2026-05-04 03:03 | 30.11367 | -99.81211 | 25081 ft | 441 kts | 111° |
| 2026-05-04 03:03 | 30.10310 | -99.77883 | 25050 ft | 441 kts | 111° |
| 2026-05-04 03:03 | 30.09256 | -99.74563 | 24806 ft | 443 kts | 111° |
| 2026-05-04 03:04 | 30.08183 | -99.71192 | 24117 ft | 451 kts | 111° |
| 2026-05-04 03:04 | 30.07094 | -99.67769 | 23446 ft | 458 kts | 111° |
| 2026-05-04 03:04 | 30.05985 | -99.64289 | 22693 ft | 464 kts | 111° |
| 2026-05-04 03:04 | 30.04866 | -99.60783 | 21970 ft | 468 kts | 111° |
| 2026-05-04 03:05 | 30.03737 | -99.57247 | 21266 ft | 471 kts | 111° |
| 2026-05-04 03:05 | 30.02603 | -99.53699 | 20600 ft | 472 kts | 111° |
| 2026-05-04 03:05 | 30.01466 | -99.50146 | 19962 ft | 472 kts | 111° |
| 2026-05-04 03:05 | 30.00327 | -99.46590 | 19341 ft | 472 kts | 110° |
| 2026-05-04 03:06 | 29.99189 | -99.43043 | 18745 ft | 471 kts | 110° |
| 2026-05-04 03:06 | 29.98054 | -99.39509 | 18146 ft | 469 kts | 110° |
| 2026-05-04 03:06 | 29.96922 | -99.35987 | 17486 ft | 467 kts | 110° |
| 2026-05-04 03:06 | 29.95794 | -99.32483 | 16848 ft | 465 kts | 110° |
| 2026-05-04 03:07 | 29.94680 | -99.29024 | 16229 ft | 452 kts | 110° |
| 2026-05-04 03:07 | 29.93604 | -99.25686 | 15635 ft | 438 kts | 110° |
| 2026-05-04 03:07 | 29.92555 | -99.22432 | 15056 ft | 427 kts | 110° |
| 2026-05-04 03:07 | 29.91432 | -99.19312 | 14436 ft | 418 kts | 112° |
| 2026-05-04 03:08 | 29.90322 | -99.16291 | 13854 ft | 410 kts | 112° |
| 2026-05-04 03:08 | 29.89226 | -99.13290 | 13181 ft | 403 kts | 112° |
| 2026-05-04 03:08 | 29.88152 | -99.10341 | 12526 ft | 395 kts | 112° |
| 2026-05-04 03:08 | 29.87099 | -99.07445 | 11899 ft | 388 kts | 113° |
| 2026-05-04 03:09 | 29.86057 | -99.04605 | 11272 ft | 382 kts | 113° |
| 2026-05-04 03:09 | 29.85029 | -99.01812 | 10668 ft | 375 kts | 114° |
| 2026-05-04 03:09 | 29.84020 | -98.99071 | 10070 ft | 369 kts | 114° |
| 2026-05-04 03:09 | 29.82983 | -98.96393 | 9426 ft | 363 kts | 117° |
| 2026-05-04 03:10 | 29.81900 | -98.93821 | 9089 ft | 348 kts | 117° |
| 2026-05-04 03:10 | 29.80889 | -98.91401 | 9058 ft | 324 kts | 117° |
| 2026-05-04 03:10 | 29.79947 | -98.89139 | 9034 ft | 303 kts | 117° |
| 2026-05-04 03:10 | 29.79052 | -98.86988 | 8676 ft | 295 kts | 117° |
| 2026-05-04 03:11 | 29.78167 | -98.84863 | 8167 ft | 294 kts | 117° |
| 2026-05-04 03:11 | 29.77285 | -98.82742 | 7650 ft | 293 kts | 118° |
| 2026-05-04 03:11 | 29.76309 | -98.80707 | 7164 ft | 289 kts | 128° |
| 2026-05-04 03:11 | 29.75112 | -98.78865 | 6696 ft | 286 kts | 130° |
| 2026-05-04 03:12 | 29.73929 | -98.77038 | 6217 ft | 284 kts | 129° |
| 2026-05-04 03:12 | 29.72778 | -98.75246 | 6004 ft | 270 kts | 129° |
| 2026-05-04 03:12 | 29.71725 | -98.73597 | 6054 ft | 242 kts | 130° |
| 2026-05-04 03:12 | 29.70781 | -98.72116 | 6019 ft | 218 kts | 130° |
| 2026-05-04 03:13 | 29.69893 | -98.70723 | 5697 ft | 216 kts | 130° |
| 2026-05-04 03:13 | 29.69008 | -98.69332 | 5283 ft | 213 kts | 130° |
| 2026-05-04 03:13 | 29.68151 | -98.67985 | 5008 ft | 206 kts | 130° |
| 2026-05-04 03:13 | 29.67317 | -98.66675 | 4745 ft | 201 kts | 130° |
| 2026-05-04 03:14 | 29.66507 | -98.65372 | 4478 ft | 200 kts | 126° |
| 2026-05-04 03:14 | 29.65825 | -98.63973 | 4215 ft | 200 kts | 125° |
| 2026-05-04 03:14 | 29.65053 | -98.62657 | 3959 ft | 198 kts | 131° |
| 2026-05-04 03:14 | 29.64215 | -98.61452 | 3709 ft | 186 kts | 134° |
| 2026-05-04 03:15 | 29.63405 | -98.60370 | 3485 ft | 169 kts | 135° |
| 2026-05-04 03:15 | 29.62683 | -98.59427 | 3340 ft | 145 kts | 135° |
| 2026-05-04 03:15 | 29.62032 | -98.58586 | 3113 ft | 139 kts | 136° |
| 2026-05-04 03:15 | 29.61390 | -98.57754 | 2931 ft | 139 kts | 135° |
| 2026-05-04 03:16 | 29.60747 | -98.56921 | 2743 ft | 139 kts | 135° |
| 2026-05-04 03:16 | 29.60104 | -98.56089 | 2554 ft | 139 kts | 134° |
| 2026-05-04 03:16 | 29.59461 | -98.55258 | 2373 ft | 139 kts | 135° |
| 2026-05-04 03:16 | 29.58822 | -98.54430 | 2193 ft | 138 kts | 135° |
| 2026-05-04 03:17 | 29.58186 | -98.53607 | 2018 ft | 138 kts | 134° |
| 2026-05-04 03:17 | 29.57545 | -98.52779 | 1833 ft | 139 kts | 134° |
| 2026-05-04 03:17 | 29.56895 | -98.51947 | 1643 ft | 141 kts | 131° |
| 2026-05-04 03:17 | 29.56248 | -98.51104 | 1474 ft | 143 kts | 132° |
| 2026-05-04 03:18 | 29.55593 | -98.50253 | 1281 ft | 141 kts | 132° |
| 2026-05-04 03:18 | 29.54936 | -98.49408 | 1025 ft | 143 kts | 130° |
| 2026-05-04 03:18 | 29.54274 | -98.48559 | 853 ft | 142 kts | 132° |
| 2026-05-04 03:18 | 29.53692 | -98.47782 | 799 ft | 99 kts | 125° |
| 2026-05-04 03:19 | 29.53337 | -98.47336 | 797 ft | 55 kts | 141° |
| 2026-05-04 03:19 | 29.53183 | -98.47271 | 798 ft | 0 kts | 166° |
| 2026-05-04 03:19 | 29.53179 | -98.47270 | 798 ft | 2 kts | 167° |
| 2026-05-04 03:20 | 29.53144 | -98.47266 | 799 ft | 6 kts | 183° |
| 2026-05-04 03:20 | 29.53088 | -98.47253 | 798 ft | 11 kts | 136° |
| 2026-05-04 03:20 | 29.53035 | -98.47173 | 779 ft | 15 kts | 121° |
| 2026-05-04 03:20 | 29.52972 | -98.47076 | 792 ft | 17 kts | 136° |
| 2026-05-04 03:21 | 29.52892 | -98.47061 | 792 ft | 11 kts | 198° |
| 2026-05-04 03:21 | 29.52822 | -98.47073 | 791 ft | 11 kts | 172° |
| 2026-05-04 03:21 | 29.52800 | -98.47070 | 791 ft | 4 kts | 188° |
| 2026-05-04 03:21 | 29.52780 | -98.47069 | 790 ft | 0 kts | 161° |
| 2026-05-04 03:22 | 29.52772 | -98.47065 | 789 ft | 0 kts | 160° |